Susan Moran — WDA6881 — position and weather

sailwx.info

Track history (hours):
 
Tides and Currents Weather Stations Pressure Air Temp Water Temp Dewpoint Dewpoint Depression Visibility Wind Speed Wind Dir Waves Ship Positions

Susan Moran

Owner: MORAN TOWING CORPORATION, NORFOLK, VA. More information available from US FCC via Universal Licensing System and Coast Guard Vessel Documentation Center.

Last reported at 2017-Nov-17 18:09 UTC. Time now 2017-Nov-23 05:17 UTC.
Position N 36°55' W 076°10'.

Length 27 m; draft 4.2 m.

Type: Tug. MMSI: 366837130.

Date/timePositionNaut miles runAvg speedWind from/ knotsBaromVisibWave heightAir tempDewpointWater temp
2017-Nov-17 18:09N 36°55' W 076°10'0 1.0
2017-Nov-17 18:00N 36°55' W 076°10'0 0.0
2017-Nov-17 17:30N 36°55' W 076°10'8 2.2
2017-Nov-17 13:54N 36°56' W 076°20'  
2017-Nov-10 20:02N 36°57' W 076°20'0 0.0
2017-Nov-10 20:00N 36°57' W 076°20'0 0.0
2017-Nov-10 19:30N 36°57' W 076°20'8 0.3
2017-Nov-09 17:53N 36°55' W 076°10'8 0.5
2017-Nov-09 03:02N 36°57' W 076°20'0 0.0
2017-Nov-09 03:00N 36°57' W 076°20'0 0.0
2017-Nov-09 02:30N 36°57' W 076°20'0 0.0
2017-Nov-09 02:00N 36°57' W 076°20'0 0.0
2017-Nov-09 01:30N 36°57' W 076°20'0 0.0
2017-Nov-09 01:01N 36°57' W 076°20'4 7.9
2017-Nov-09 00:30N 36°53' W 076°20'0 0.2
2017-Nov-09 00:00N 36°53' W 076°20'0 0.8
2017-Nov-08 23:30N 36°54' W 076°20'2 4.5
2017-Nov-08 23:00N 36°56' W 076°20'1 2.5
2017-Nov-08 22:30N 36°57' W 076°20'1 3.0
2017-Nov-08 22:00N 36°59' W 076°19'1 2.9
2017-Nov-08 21:30N 36°57' W 076°20'2 4.3
2017-Nov-08 21:00N 36°55' W 076°20'5 9.9
2017-Nov-08 20:30N 36°51' W 076°18'2 3.4
2017-Nov-08 20:00N 36°49' W 076°18'0 0.0
2017-Nov-08 19:30N 36°49' W 076°18'0 0.2
2017-Nov-08 19:00N 36°49' W 076°18'0 0.7
2017-Nov-08 18:30N 36°49' W 076°17'0 0.2
2017-Nov-08 18:00N 36°49' W 076°18'0 0.1
2017-Nov-08 17:30N 36°49' W 076°18'0 0.0
2017-Nov-08 17:00N 36°49' W 076°18'0 0.0
2017-Nov-08 16:30N 36°49' W 076°18'0 0.0
2017-Nov-08 16:00N 36°49' W 076°18'0 0.4
2017-Nov-08 15:30N 36°49' W 076°17'4 8.8
2017-Nov-08 15:00N 36°53' W 076°20'4 2.2
2017-Nov-08 13:16N 36°57' W 076°20'0 0.0
2017-Nov-08 05:56N 36°57' W 076°20'0 0.0
2017-Nov-08 05:30N 36°57' W 076°20'0 0.0
2017-Nov-08 05:00N 36°57' W 076°20'0 0.0
2017-Nov-08 04:30N 36°57' W 076°20'0 0.0
2017-Nov-08 04:00N 36°57' W 076°20'0 0.0
2017-Nov-08 03:30N 36°57' W 076°20'0 0.0
2017-Nov-08 03:00N 36°57' W 076°20'0 0.0
2017-Nov-08 02:30N 36°57' W 076°20'0 0.0
2017-Nov-08 02:00N 36°57' W 076°20'0 0.0
2017-Nov-08 01:30N 36°57' W 076°20'0 0.0
2017-Nov-08 01:00N 36°57' W 076°20'0 0.0
2017-Nov-08 00:30N 36°57' W 076°20'0 0.0
2017-Nov-08 00:00N 36°57' W 076°20'0 0.0
2017-Nov-07 23:30N 36°57' W 076°20'0 0.0
2017-Nov-07 23:00N 36°57' W 076°20'0 0.0
2017-Nov-07 22:30N 36°57' W 076°20'0 0.0
2017-Nov-07 21:59N 36°57' W 076°20'0 0.0
2017-Nov-07 21:29N 36°57' W 076°20'0 0.0
2017-Nov-07 21:00N 36°57' W 076°20'0 0.0
2017-Nov-07 20:30N 36°57' W 076°20'0 0.0
2017-Nov-07 20:00N 36°57' W 076°20'0 0.0
2017-Nov-07 19:30N 36°57' W 076°20'0 0.0
2017-Nov-07 19:00N 36°57' W 076°20'0 0.0
2017-Nov-07 18:30N 36°57' W 076°20'  
Track history (hours):
 
Tides and Currents Weather Stations Pressure Air Temp Water Temp Dewpoint Dewpoint Depression Visibility Wind Speed Wind Dir Waves Ship Positions

Susan Moran

Owner: MORAN TOWING CORPORATION, NORFOLK, VA. More information available from US FCC via Universal Licensing System and Coast Guard Vessel Documentation Center.

Last reported at 2017-Nov-17 18:09 UTC. Time now 2017-Nov-23 05:17 UTC.
Position N 36°55' W 076°10'.

Length 27 m; draft 4.2 m.

Type: Tug. MMSI: 366837130.

Date/timePositionNaut miles runAvg speedWind from/ knotsBaromVisibWave heightAir tempDewpointWater temp
2017-Nov-17 18:09N 36°55' W 076°10'0 1.0
2017-Nov-17 18:00N 36°55' W 076°10'0 0.0
2017-Nov-17 17:30N 36°55' W 076°10'8 2.2
2017-Nov-17 13:54N 36°56' W 076°20'  
2017-Nov-10 20:02N 36°57' W 076°20'0 0.0
2017-Nov-10 20:00N 36°57' W 076°20'0 0.0
2017-Nov-10 19:30N 36°57' W 076°20'8 0.3
2017-Nov-09 17:53N 36°55' W 076°10'8 0.5
2017-Nov-09 03:02N 36°57' W 076°20'0 0.0
2017-Nov-09 03:00N 36°57' W 076°20'0 0.0
2017-Nov-09 02:30N 36°57' W 076°20'0 0.0
2017-Nov-09 02:00N 36°57' W 076°20'0 0.0
2017-Nov-09 01:30N 36°57' W 076°20'0 0.0
2017-Nov-09 01:01N 36°57' W 076°20'4 7.9
2017-Nov-09 00:30N 36°53' W 076°20'0 0.2
2017-Nov-09 00:00N 36°53' W 076°20'0 0.8
2017-Nov-08 23:30N 36°54' W 076°20'2 4.5
2017-Nov-08 23:00N 36°56' W 076°20'1 2.5
2017-Nov-08 22:30N 36°57' W 076°20'1 3.0
2017-Nov-08 22:00N 36°59' W 076°19'1 2.9
2017-Nov-08 21:30N 36°57' W 076°20'2 4.3
2017-Nov-08 21:00N 36°55' W 076°20'5 9.9
2017-Nov-08 20:30N 36°51' W 076°18'2 3.4
2017-Nov-08 20:00N 36°49' W 076°18'0 0.0
2017-Nov-08 19:30N 36°49' W 076°18'0 0.2
2017-Nov-08 19:00N 36°49' W 076°18'0 0.7
2017-Nov-08 18:30N 36°49' W 076°17'0 0.2
2017-Nov-08 18:00N 36°49' W 076°18'0 0.1
2017-Nov-08 17:30N 36°49' W 076°18'0 0.0
2017-Nov-08 17:00N 36°49' W 076°18'0 0.0
2017-Nov-08 16:30N 36°49' W 076°18'0 0.0
2017-Nov-08 16:00N 36°49' W 076°18'0 0.4
2017-Nov-08 15:30N 36°49' W 076°17'4 8.8
2017-Nov-08 15:00N 36°53' W 076°20'4 2.2
2017-Nov-08 13:16N 36°57' W 076°20'0 0.0
2017-Nov-08 05:56N 36°57' W 076°20'0 0.0
2017-Nov-08 05:30N 36°57' W 076°20'0 0.0
2017-Nov-08 05:00N 36°57' W 076°20'0 0.0
2017-Nov-08 04:30N 36°57' W 076°20'0 0.0
2017-Nov-08 04:00N 36°57' W 076°20'0 0.0
2017-Nov-08 03:30N 36°57' W 076°20'0 0.0
2017-Nov-08 03:00N 36°57' W 076°20'0 0.0
2017-Nov-08 02:30N 36°57' W 076°20'0 0.0
2017-Nov-08 02:00N 36°57' W 076°20'0 0.0
2017-Nov-08 01:30N 36°57' W 076°20'0 0.0
2017-Nov-08 01:00N 36°57' W 076°20'0 0.0
2017-Nov-08 00:30N 36°57' W 076°20'0 0.0
2017-Nov-08 00:00N 36°57' W 076°20'0 0.0
2017-Nov-07 23:30N 36°57' W 076°20'0 0.0
2017-Nov-07 23:00N 36°57' W 076°20'0 0.0
2017-Nov-07 22:30N 36°57' W 076°20'0 0.0
2017-Nov-07 21:59N 36°57' W 076°20'0 0.0
2017-Nov-07 21:29N 36°57' W 076°20'0 0.0
2017-Nov-07 21:00N 36°57' W 076°20'0 0.0
2017-Nov-07 20:30N 36°57' W 076°20'0 0.0
2017-Nov-07 20:00N 36°57' W 076°20'0 0.0
2017-Nov-07 19:30N 36°57' W 076°20'0 0.0
2017-Nov-07 19:00N 36°57' W 076°20'0 0.0
2017-Nov-07 18:30N 36°57' W 076°20'  

Dump ship's entire track history